Terminal Aerodrome Forecast
Issued by NWS

Home | Current Version | Previous Version | Text Only | Print | Product List | Glossary On
Versions: 1 2 3 4 5 6 7 8 9 10 11 12 13
000
FTUS45 KGGW 251100
TAFOLF
TAF
KOLF 251128Z 2512/2612 00000KT P6SM SCT070 BKN120
     FM251600 09009KT P6SM SCT100
     FM251900 13013KT P6SM SKC
     FM260000 08007KT P6SM BKN250=

USA.gov is the U.S. government's official web portal to all federal, state and local government web resources and services.